Time;durP1;ratioP1;P1;durP2;ratioP2;P2;SDS_P1;SDS_P2;PMS_P1;PMS_P2;Temp;Humidity;BMP_temperature;BMP_pressure;BME280_temperature;BME280_humidity;BME280_pressure;Samples;Min_cycle;Max_cycle;Signal;HPM_P1;HPM_P2
2021/11/01 00:00:44;;;;;;;23.48;9.13;;;;;;;7.55;100.00;95144.13;5041679;28;20048;-74
2021/11/01 00:03:11;;;;;;;20.80;10.40;;;;;;;7.58;100.00;95138.53;5041580;28;20517;-75
2021/11/01 00:05:39;;;;;;;24.25;10.15;;;;;;;7.63;100.00;95135.31;5041395;28;20052;-74
2021/11/01 00:08:06;;;;;;;20.83;10.23;;;;;;;7.58;100.00;95127.34;5041748;28;20125;-75
2021/11/01 00:10:33;;;;;;;20.80;9.10;;;;;;;7.65;100.00;95138.50;5044438;28;20048;-75
2021/11/01 00:13:00;;;;;;;26.15;11.05;;;;;;;7.66;100.00;95133.13;5041612;28;20116;-75
2021/11/01 00:15:27;;;;;;;23.48;11.35;;;;;;;7.61;100.00;95132.13;5043864;28;20040;-75
2021/11/01 00:17:54;;;;;;;24.15;10.45;;;;;;;7.58;100.00;95132.53;5040332;28;20048;-75
2021/11/01 00:20:22;;;;;;;22.17;10.02;;;;;;;7.50;100.00;95120.59;5042922;28;20048;-74
2021/11/01 00:22:50;;;;;;;19.25;8.68;;;;;;;7.52;100.00;95134.16;5041721;28;20041;-75
2021/11/01 00:25:17;;;;;;;19.55;8.40;;;;;;;7.52;100.00;95125.59;5043658;28;20041;-75
2021/11/01 00:27:44;;;;;;;21.58;10.50;;;;;;;7.51;100.00;95126.59;5042374;28;20057;-74
2021/11/01 00:30:12;;;;;;;24.17;10.48;;;;;;;7.54;100.00;95126.19;5022695;28;20052;-75
2021/11/01 00:32:39;;;;;;;22.85;10.50;;;;;;;7.43;100.00;95130.19;5042251;28;20086;-74
2021/11/01 00:35:07;;;;;;;20.70;10.27;;;;;;;7.34;100.00;95128.81;5040579;28;20102;-74
2021/11/01 00:37:33;;;;;;;21.75;10.63;;;;;;;7.29;100.00;95116.47;5040811;28;20460;-74
2021/11/01 00:40:01;;;;;;;33.53;13.60;;;;;;;7.50;100.00;95125.78;5042356;28;20045;-75
2021/11/01 00:42:28;;;;;;;31.63;14.02;;;;;;;7.44;100.00;95124.81;5043081;28;20037;-74
2021/11/01 00:44:55;;;;;;;25.73;12.70;;;;;;;7.36;100.00;95129.41;5041913;28;20037;-74
2021/11/01 00:47:22;;;;;;;39.30;15.05;;;;;;;7.19;99.02;95124.66;5042218;28;20051;-74
2021/11/01 00:49:50;;;;;;;32.08;15.05;;;;;;;7.04;96.74;95111.94;5041025;28;20044;-74
2021/11/01 00:52:25;;;;;;;34.53;15.65;;;;;;;7.04;95.72;95117.13;5042136;28;20044;-74
2021/11/01 00:54:58;;;;;;;30.88;14.88;;;;;;;6.78;95.56;95117.94;5038883;28;20088;-74
2021/11/01 00:57:26;;;;;;;34.92;17.00;;;;;;;6.66;95.41;95117.75;5040867;28;20045;-74
2021/11/01 00:59:53;;;;;;;36.58;16.70;;;;;;;6.58;95.82;95110.16;5039720;28;20041;-74
2021/11/01 01:02:21;;;;;;;41.22;15.65;;;;;;;6.57;95.79;95108.59;5040943;28;20060;-74
2021/11/01 01:04:48;;;;;;;58.00;25.25;;;;;;;6.41;95.72;95098.59;5041765;28;20099;-73
2021/11/01 01:07:15;;;;;;;37.30;17.80;;;;;;;6.32;95.95;95104.00;5021927;28;20417;-75
2021/11/01 01:09:42;;;;;;;43.33;17.38;;;;;;;6.35;96.19;95096.81;5041796;28;20033;-74
2021/11/01 01:12:10;;;;;;;39.88;17.23;;;;;;;6.32;96.19;95088.47;5042025;28;20049;-74
2021/11/01 01:14:44;;;;;;;49.13;19.88;;;;;;;6.39;96.35;95095.41;5040720;28;20092;-74
2021/11/01 01:17:11;;;;;;;40.55;17.95;;;;;;;6.39;96.30;95082.50;5040250;28;20849;-74
2021/11/01 01:19:50;;;;;;;42.40;20.50;;;;;;;6.36;96.20;95064.78;5042551;28;20095;-74
2021/11/01 01:22:28;;;;;;;47.95;19.20;;;;;;;6.44;96.65;95086.06;5040738;28;20049;-74
2021/11/01 01:25:10;;;;;;;44.85;18.48;;;;;;;6.48;97.22;95076.13;5021018;28;20103;-74
2021/11/01 01:27:52;;;;;;;53.17;20.20;;;;;;;6.50;96.92;95076.75;5039635;28;20055;-74
2021/11/01 01:30:21;;;;;;;53.75;20.58;;;;;;;6.51;97.15;95086.88;5040898;28;20053;-74
2021/11/01 01:32:48;;;;;;;46.92;17.42;;;;;;;6.45;96.94;95076.53;5039184;28;20056;-74
2021/11/01 01:35:16;;;;;;;39.40;17.63;;;;;;;6.47;97.12;95064.19;5039341;28;20056;-74
2021/11/01 01:37:44;;;;;;;38.05;19.00;;;;;;;6.39;97.54;95062.59;5039824;28;20049;-74
2021/11/01 01:40:15;;;;;;;36.17;17.45;;;;;;;6.30;97.70;95054.25;5041456;28;20055;-73
2021/11/01 01:42:42;;;;;;;38.53;18.13;;;;;;;6.32;98.17;95060.00;5039458;28;20044;-74
2021/11/01 01:45:10;;;;;;;41.70;18.02;;;;;;;6.32;98.33;95054.84;5038146;28;20394;-73
2021/11/01 01:47:40;;;;;;;42.90;18.42;;;;;;;6.24;98.66;95055.00;5040235;28;20045;-74
2021/11/01 01:50:11;;;;;;;40.25;18.63;;;;;;;6.34;98.39;95048.66;5040773;28;20586;-74
2021/11/01 01:52:38;;;;;;;37.72;17.88;;;;;;;6.17;98.35;95025.75;5039874;28;20106;-73
2021/11/01 01:55:08;;;;;;;52.90;22.17;;;;;;;6.38;97.69;95040.31;5040126;28;20052;-73
2021/11/01 01:57:36;;;;;;;43.83;20.75;;;;;;;6.30;98.29;95041.31;5040031;28;20041;-73
2021/11/01 02:00:09;;;;;;;56.40;21.95;;;;;;;6.32;97.77;95046.28;5042506;28;20053;-73
2021/11/01 02:02:36;;;;;;;39.85;18.80;;;;;;;6.32;97.65;95052.25;5044874;28;20049;-74
2021/11/01 02:05:04;;;;;;;42.05;19.50;;;;;;;6.30;97.29;95043.91;5024767;28;20128;-73
2021/11/01 02:07:47;;;;;;;38.53;18.05;;;;;;;6.25;96.89;95048.88;5043406;28;20114;-74
2021/11/01 02:10:16;;;;;;;54.58;21.38;;;;;;;6.17;96.70;95043.88;5026426;28;20457;-73
2021/11/01 02:12:50;;;;;;;53.88;21.77;;;;;;;6.16;96.62;95042.28;5044698;28;20056;-73
2021/11/01 02:15:21;;;;;;;52.95;22.80;;;;;;;5.98;97.43;95039.47;5045788;28;20796;-74
2021/11/01 02:17:52;;;;;;;45.55;20.70;;;;;;;5.93;98.08;95046.00;5043930;28;20044;-74
2021/11/01 02:20:27;;;;;;;51.58;22.38;;;;;;;5.86;97.98;95037.44;5043127;28;20106;-74
2021/11/01 02:23:19;;;;;;;44.35;19.42;;;;;;;5.77;97.75;95033.44;5042881;28;20048;-74
2021/11/01 02:25:48;;;;;;;38.17;19.45;;;;;;;5.78;98.19;95044.56;5027205;28;20556;-73
2021/11/01 02:28:19;;;;;;;49.15;20.95;;;;;;;5.72;98.34;95040.97;5044002;28;20051;-74
2021/11/01 02:30:50;;;;;;;45.10;21.05;;;;;;;5.63;98.47;95048.09;5043458;28;20056;-74
2021/11/01 02:33:18;;;;;;;50.90;22.75;;;;;;;5.62;99.00;95043.13;5043923;28;20095;-74
2021/11/01 02:35:46;;;;;;;45.63;21.88;;;;;;;5.58;99.50;95041.94;5044261;28;20530;-74
2021/11/01 02:38:14;;;;;;;43.95;20.58;;;;;;;5.41;98.59;95034.53;5044933;28;20045;-74
2021/11/01 02:40:42;;;;;;;47.10;21.65;;;;;;;5.49;98.67;95039.53;5043412;28;20505;-74
2021/11/01 02:43:09;;;;;;;49.55;20.77;;;;;;;5.53;98.53;95032.97;5044794;28;20055;-74
2021/11/01 02:45:36;;;;;;;52.33;20.23;;;;;;;5.49;99.15;95026.63;5045344;28;20049;-74
2021/11/01 02:48:03;;;;;;;47.88;20.75;;;;;;;5.45;99.65;95027.97;5044567;28;20102;-74
2021/11/01 02:50:31;;;;;;;52.78;22.70;;;;;;;5.58;99.79;95029.00;5044807;28;20052;-74
2021/11/01 02:52:59;;;;;;;45.97;20.85;;;;;;;5.51;99.86;95040.13;5045002;28;20482;-74
2021/11/01 02:55:26;;;;;;;54.35;22.77;;;;;;;5.42;100.00;95043.88;5043941;28;20049;-74
2021/11/01 02:57:53;;;;;;;70.05;27.60;;;;;;;5.34;100.00;95036.28;5043756;28;20438;-74
2021/11/01 03:00:25;;;;;;;46.88;25.08;;;;;;;5.22;100.00;95030.91;5044788;28;20045;-74
2021/11/01 03:02:53;;;;;;;47.13;21.10;;;;;;;5.28;100.00;95030.13;5045289;28;20112;-75
2021/11/01 03:05:22;;;;;;;60.70;27.38;;;;;;;5.36;100.00;95026.56;5043779;28;20041;-74
2021/11/01 03:07:50;;;;;;;56.42;26.52;;;;;;;5.47;100.00;95022.63;5042428;28;20501;-73
2021/11/01 03:10:20;;;;;;;55.72;24.67;;;;;;;5.58;100.00;95029.00;5043159;28;20107;-74
2021/11/01 03:12:49;;;;;;;51.00;24.38;;;;;;;5.63;99.70;95021.47;5028059;28;20118;-74
2021/11/01 03:15:22;;;;;;;52.38;24.25;;;;;;;5.63;99.02;95021.47;5025231;28;20049;-74
2021/11/01 03:17:58;;;;;;;76.50;30.48;;;;;;;5.60;98.28;95032.19;5044244;28;20111;-74
2021/11/01 03:20:38;;;;;;;64.13;26.35;;;;;;;5.45;97.75;95024.59;5023957;28;20045;-74
2021/11/01 03:23:13;;;;;;;54.25;23.80;;;;;;;5.39;97.16;95021.00;5041673;28;20045;-74
2021/11/01 03:25:48;;;;;;;59.72;23.65;;;;;;;5.42;96.22;95023.22;5044322;28;20053;-74
2021/11/01 03:28:17;;;;;;;53.90;20.83;;;;;;;5.26;96.14;95005.47;5042934;28;20036;-74
2021/11/01 03:30:47;;;;;;;55.97;24.15;;;;;;;5.24;95.80;95022.94;5044110;28;20040;-74
2021/11/01 03:33:15;;;;;;;50.38;21.52;;;;;;;5.11;95.91;95019.31;5045429;28;20037;-74
2021/11/01 03:35:44;;;;;;;52.78;20.83;;;;;;;4.90;96.72;95011.69;5044229;28;20415;-74
2021/11/01 03:38:13;;;;;;;56.67;22.88;;;;;;;4.86;97.39;95023.34;5043527;28;20821;-73
2021/11/01 03:40:42;;;;;;;46.08;22.60;;;;;;;4.77;98.04;95028.69;5043429;28;20056;-73
2021/11/01 03:43:10;;;;;;;52.75;21.90;;;;;;;4.72;98.40;95015.53;5043523;28;20044;-74
2021/11/01 03:45:38;;;;;;;50.90;21.75;;;;;;;4.64;98.63;95015.69;5043460;28;20509;-74
2021/11/01 03:48:06;;;;;;;44.88;21.17;;;;;;;4.59;98.34;95020.59;5043094;28;20044;-74
2021/11/01 03:50:46;;;;;;;49.05;20.83;;;;;;;4.44;98.44;95019.91;5044597;28;20090;-74
2021/11/01 03:53:13;;;;;;;48.58;19.80;;;;;;;4.34;99.35;95023.63;5042794;28;20052;-74
2021/11/01 03:55:40;;;;;;;42.22;18.92;;;;;;;4.33;99.91;95022.00;5043621;28;20040;-73
2021/11/01 03:58:07;;;;;;;45.60;19.70;;;;;;;4.33;99.88;95021.22;5022957;28;20538;-74
2021/11/01 04:00:36;;;;;;;49.58;18.90;;;;;;;4.29;100.00;95013.06;5041734;28;20049;-74
2021/11/01 04:03:04;;;;;;;51.88;22.27;;;;;;;4.22;100.00;95012.22;5042912;28;20111;-73
2021/11/01 04:05:31;;;;;;;45.95;20.10;;;;;;;4.25;100.00;95014.44;5042918;28;20045;-73
2021/11/01 04:07:58;;;;;;;37.95;18.13;;;;;;;4.21;100.00;95008.03;5021596;28;20041;-73
2021/11/01 04:10:27;;;;;;;43.35;18.20;;;;;;;4.11;100.00;94997.25;5042405;28;20061;-73
2021/11/01 04:12:54;;;;;;;44.42;20.08;;;;;;;4.21;100.00;95018.34;5042847;28;20048;-74
2021/11/01 04:15:24;;;;;;;43.10;19.80;;;;;;;4.26;100.00;95005.69;5041908;28;20041;-74
2021/11/01 04:18:05;;;;;;;44.00;18.77;;;;;;;4.39;100.00;95008.38;5042529;28;20037;-74
2021/11/01 04:20:50;;;;;;;48.35;19.90;;;;;;;4.48;100.00;95008.22;5040606;28;20041;-73
2021/11/01 04:23:19;;;;;;;39.65;17.80;;;;;;;4.53;100.00;95005.88;5042072;28;20102;-73
2021/11/01 04:25:46;;;;;;;43.70;20.00;;;;;;;4.36;100.00;94970.06;5041971;28;20052;-73
2021/11/01 04:28:13;;;;;;;38.92;19.38;;;;;;;4.58;100.00;95003.53;5041884;28;20049;-73
2021/11/01 04:30:42;;;;;;;44.08;20.42;;;;;;;4.65;100.00;94991.47;5040466;28;20033;-73
2021/11/01 04:33:14;;;;;;;46.47;18.02;;;;;;;4.64;100.00;94992.47;5041059;28;20047;-73
2021/11/01 04:35:40;;;;;;;49.85;20.08;;;;;;;4.73;100.00;94995.69;5042120;28;20045;-72
2021/11/01 04:53:58;;;;;;;40.17;17.92;;;;;;;5.39;98.67;94984.84;5040866;28;20033;-73
2021/11/01 04:56:26;;;;;;;47.13;19.75;;;;;;;5.35;98.24;94984.44;5040230;28;20049;-73
2021/11/01 04:58:55;;;;;;;44.13;19.38;;;;;;;5.11;99.77;94993.50;5041026;28;20045;-73
2021/11/01 05:01:29;;;;;;;40.45;18.73;;;;;;;5.24;100.00;94986.78;5039358;28;20060;-73
2021/11/01 05:04:01;;;;;;;;;;;;;;;5.29;99.49;94994.75;5040771;28;20060;-74
2021/11/01 05:06:28;;;;;;;39.63;18.13;;;;;;;5.24;99.56;94991.94;5039992;28;20027;-74
2021/11/01 05:09:05;;;;;;;48.60;22.23;;;;;;;5.27;100.00;94984.59;5041523;28;20461;-74
2021/11/01 05:11:37;;;;;;;41.75;20.23;;;;;;;5.33;100.00;94983.03;5041867;28;20041;-73
2021/11/01 05:14:04;;;;;;;54.50;22.63;;;;;;;5.22;100.00;94978.44;5041272;28;20057;-73
2021/11/01 05:22:48;;;;;;;63.63;21.63;;;;;;;5.40;100.00;94981.25;5031534;28;20083;-73
2021/11/01 05:24:57;;;;;;;52.72;22.65;;;;;;;5.48;100.00;94988.84;5028629;28;20053;-73
2021/11/01 05:30:17;;;;;;;;;;;;;;;5.22;100.00;94983.59;5038754;28;20064;-73
2021/11/01 05:32:54;;;;;;;61.28;27.38;;;;;;;5.12;100.00;94989.91;5041180;28;19971;-72
2021/11/01 05:35:21;;;;;;;50.13;21.45;;;;;;;5.07;100.00;94989.69;5044321;28;20106;-73
2021/11/01 05:37:50;;;;;;;44.50;22.17;;;;;;;5.11;100.00;94987.53;5044515;28;20102;-73
2021/11/01 05:40:17;;;;;;;49.80;21.88;;;;;;;5.03;100.00;95001.41;5044157;28;20048;-73
2021/11/01 05:42:45;;;;;;;55.25;23.90;;;;;;;4.96;100.00;94979.94;5043330;28;20155;-73
2021/11/01 05:45:12;;;;;;;61.63;30.42;;;;;;;5.13;100.00;94994.09;5046009;28;20045;-73
2021/11/01 05:47:43;;;;;;;54.17;25.30;;;;;;;4.91;100.00;94983.06;5044875;28;20056;-73
2021/11/01 05:50:11;;;;;;;50.15;22.75;;;;;;;4.97;100.00;94997.03;5045173;28;20045;-72
2021/11/01 05:52:40;;;;;;;51.30;25.25;;;;;;;4.94;100.00;95002.56;5043378;28;20060;-72
2021/11/01 06:03:36;;;;;;;41.00;20.02;;;;;;;5.05;100.00;95004.59;5042648;28;20064;-72
2021/11/01 06:14:29;;;;;;;41.47;17.92;;;;;;;5.07;99.40;95012.16;5013700;28;20057;-72
2021/11/01 06:16:56;;;;;;;79.43;33.28;;;;;;;5.02;99.75;95010.13;5040746;28;20110;-71
2021/11/01 06:19:24;;;;;;;40.65;19.67;;;;;;;5.07;99.80;95012.16;5042363;28;20037;-72
2021/11/01 06:21:51;;;;;;;45.22;19.83;;;;;;;5.05;99.62;94999.44;5043877;28;20044;-72
2021/11/01 06:26:55;;;;;;;42.38;20.90;;;;;;;5.11;99.98;95003.84;5038702;28;20045;-72
2021/11/01 06:29:28;;;;;;;40.80;20.27;;;;;;;5.11;100.00;95008.19;5039532;28;20044;-71
2021/11/01 06:33:08;;;;;;;40.80;19.52;;;;;;;5.00;100.00;95017.25;5037781;28;20103;-70
2021/11/01 06:56:47;;;;;;;39.75;17.05;;;;;;;5.61;100.00;95002.78;5039182;28;20558;-71
2021/11/01 07:16:05;;;;;;;35.13;18.65;;;;;;;6.41;98.67;94997.72;5041103;28;20051;-71
2021/11/01 07:18:41;;;;;;;49.22;21.00;;;;;;;6.32;98.23;94974.66;5041351;28;20077;-72
2021/11/01 08:48:44;;;;;;;34.10;14.77;;;;;;;10.30;86.38;94945.72;5040330;28;20051;-73
2021/11/01 09:02:27;;;;;;;29.50;14.77;;;;;;;10.33;86.25;94930.44;5038817;28;20056;-73
2021/11/01 09:07:55;;;;;;;30.95;12.68;;;;;;;11.03;85.72;94927.97;5038385;28;20059;-72
2021/11/01 09:27:13;;;;;;;23.58;12.07;;;;;;;12.61;74.38;94918.59;4973493;28;20062;-73
2021/11/01 09:38:29;;;;;;;20.60;11.20;;;;;;;13.47;71.12;94897.13;5040206;28;20047;-72
2021/11/01 09:41:10;;;;;;;17.50;9.77;;;;;;;13.53;69.85;94890.91;5042010;28;20025;-72
2021/11/01 09:43:38;;;;;;;20.85;11.90;;;;;;;13.93;66.44;94889.66;5040787;28;20044;-71
2021/11/01 09:46:09;;;;;;;18.67;9.43;;;;;;;13.81;66.72;94872.56;5042281;28;20068;-72
2021/11/01 09:48:38;;;;;;;18.05;9.50;;;;;;;13.67;66.34;94872.19;5042402;28;20041;-72
2021/11/01 09:51:06;;;;;;;19.77;11.38;;;;;;;13.89;65.18;94862.41;5040898;28;20114;-71
2021/11/01 09:53:41;;;;;;;15.15;8.35;;;;;;;14.42;62.29;94872.19;5040660;28;20044;-72
2021/11/01 09:59:11;;;;;;;19.02;9.88;;;;;;;14.64;62.85;94861.56;4962831;28;20791;-72
2021/11/01 10:01:46;;;;;;;14.70;9.07;;;;;;;15.04;57.96;94839.97;5024600;28;20642;-73
2021/11/01 10:04:22;;;;;;;15.55;7.53;;;;;;;15.76;55.73;94855.09;5040718;28;20045;-72
2021/11/01 10:07:10;;;;;;;19.05;9.80;;;;;;;15.93;57.69;94852.19;5038685;28;20052;-72
2021/11/01 10:09:42;;;;;;;15.38;8.50;;;;;;;16.32;55.15;94843.72;5037151;28;20053;-72
2021/11/01 10:12:12;;;;;;;15.38;7.90;;;;;;;16.48;55.06;94840.00;5040940;28;20045;-71
2021/11/01 10:14:51;;;;;;;21.17;11.60;;;;;;;16.08;53.41;94820.66;5039242;28;20049;-72
2021/11/01 10:17:36;;;;;;;17.02;10.18;;;;;;;16.73;51.57;94836.50;5040867;28;20040;-72
2021/11/01 10:20:17;;;;;;;14.10;7.93;;;;;;;17.07;50.77;94835.88;5041048;28;20494;-72
2021/11/01 10:22:45;;;;;;;15.88;9.13;;;;;;;17.35;51.48;94831.72;5026438;28;20044;-72
2021/11/01 10:25:18;;;;;;;15.70;9.13;;;;;;;17.07;51.78;94830.59;5043628;28;20049;-72
2021/11/01 10:27:52;;;;;;;14.48;8.43;;;;;;;16.89;52.38;94828.56;5043224;28;20049;-72
2021/11/01 10:30:32;;;;;;;16.00;9.38;;;;;;;16.84;51.44;94832.03;5042633;28;20049;-72
2021/11/01 10:33:04;;;;;;;14.85;8.20;;;;;;;17.63;48.97;94824.19;5044712;28;20044;-72
2021/11/01 10:35:33;;;;;;;17.60;8.52;;;;;;;18.10;48.31;94814.06;5045031;28;20041;-72
2021/11/01 10:46:47;;;;;;;15.05;8.70;;;;;;;20.35;42.36;94794.34;5045411;28;20045;-71
2021/11/01 10:57:36;;;;;;;12.20;7.90;;;;;;;20.40;40.50;94783.66;5043116;28;20064;-72
2021/11/01 11:30:24;;;;;;;13.55;7.93;;;;;;;20.55;36.34;94744.75;5002064;28;20046;-73
2021/11/01 11:42:34;;;;;;;17.10;7.97;;;;;;;21.75;35.21;94732.03;4997691;28;20754;-73
2021/11/01 11:50:37;;;;;;;14.25;8.45;;;;;;;23.60;30.96;94721.47;5000221;28;20046;-73
2021/11/01 11:53:23;;;;;;;11.35;7.60;;;;;;;23.77;31.15;94726.75;5002750;28;20035;-71
2021/11/01 11:56:05;;;;;;;13.33;8.27;;;;;;;24.15;29.40;94720.72;5003300;28;20096;-70
2021/11/01 11:58:38;;;;;;;11.00;7.97;;;;;;;24.64;28.77;94706.25;5000843;28;20438;-72
2021/11/01 12:01:28;;;;;;;12.68;7.43;;;;;;;24.94;28.23;94707.75;5016314;28;20049;-71
2021/11/01 12:04:05;;;;;;;12.82;6.88;;;;;;;23.96;29.48;94701.69;5039812;28;20037;-69
2021/11/01 12:06:50;;;;;;;14.25;7.68;;;;;;;24.30;28.47;94707.97;5024021;28;20049;-70
2021/11/01 12:09:25;;;;;;;10.43;6.80;;;;;;;24.35;28.49;94694.47;5040956;28;20493;-70
2021/11/01 12:17:29;;;;;;;11.50;8.13;;;;;;;24.64;28.85;94695.59;5036113;28;20134;-70
2021/11/01 12:20:01;;;;;;;11.10;8.00;;;;;;;24.93;28.48;94690.19;5039048;28;20083;-73
2021/11/01 12:22:31;;;;;;;12.80;8.38;;;;;;;25.08;28.99;94688.03;5041757;28;20033;-73
2021/11/01 12:25:00;;;;;;;12.52;7.25;;;;;;;24.27;29.73;94689.97;5037976;28;20037;-71
2021/11/01 12:27:33;;;;;;;13.07;7.15;;;;;;;22.21;31.31;94691.03;5024881;28;20064;-72
2021/11/01 12:30:08;;;;;;;14.90;7.90;;;;;;;20.55;34.42;94670.69;5024733;28;20098;-72
2021/11/01 12:32:37;;;;;;;15.23;8.38;;;;;;;20.22;36.72;94682.19;5040376;28;20488;-72
2021/11/01 12:35:14;;;;;;;13.88;8.43;;;;;;;20.75;34.96;94675.53;5037867;28;20487;-72
2021/11/01 12:37:51;;;;;;;13.27;8.02;;;;;;;22.05;32.81;94682.72;5040753;28;20497;-72
2021/11/01 12:40:35;;;;;;;12.23;7.65;;;;;;;22.39;31.86;94680.50;5038497;28;20052;-72
2021/11/01 12:57:00;;;;;;;10.45;7.38;;;;;;;24.46;27.96;94661.06;5038023;28;20187;-73
2021/11/01 12:59:43;;;;;;;11.10;7.20;;;;;;;24.85;27.18;94655.63;5006511;28;20053;-72
2021/11/01 13:02:15;;;;;;;11.98;8.00;;;;;;;25.44;26.64;94662.66;5038226;28;20055;-73
2021/11/01 13:04:51;;;;;;;10.23;6.68;;;;;;;25.59;26.03;94653.25;5036788;28;20053;-72
2021/11/01 13:10:50;;;;;;;8.57;6.13;;;;;;;24.52;28.16;94654.44;5035906;28;20513;-72
2021/11/01 13:18:11;;;;;;;8.60;6.00;;;;;;;24.58;26.75;94642.53;5038352;28;20073;-72
2021/11/01 13:21:00;;;;;;;8.20;6.18;;;;;;;23.94;28.60;94642.72;5035790;28;20053;-73
2021/11/01 13:23:35;;;;;;;10.60;6.72;;;;;;;23.64;28.57;94647.94;5039329;28;20573;-73
2021/11/01 13:36:52;;;;;;;14.65;7.88;;;;;;;23.66;27.90;94651.09;5039432;28;20068;-74
2021/11/01 13:39:24;;;;;;;10.88;7.43;;;;;;;23.03;29.41;94640.09;5041508;28;20056;-72
2021/11/01 13:41:51;;;;;;;13.50;7.60;;;;;;;21.87;31.08;94631.50;5036349;28;20044;-73
2021/11/01 13:44:22;;;;;;;12.45;7.97;;;;;;;21.88;31.02;94638.38;5037547;28;20049;-73
2021/11/01 13:46:59;;;;;;;12.48;8.27;;;;;;;21.55;32.65;94633.44;5040548;28;20045;-71
2021/11/01 13:49:32;;;;;;;15.23;6.88;;;;;;;22.15;30.73;94628.63;5039930;28;20068;-72
2021/11/01 13:52:36;;;;;;;10.77;6.07;;;;;;;22.09;31.32;94635.16;5038362;28;20114;-72
2021/11/01 13:55:11;;;;;;;;;;;;;;;22.27;30.94;94631.50;5026361;28;20068;-72
2021/11/01 13:58:21;;;;;;;9.25;6.13;;;;;;;21.94;31.91;94620.47;5043444;28;19947;-73
2021/11/01 14:17:29;;;;;;;12.10;7.53;;;;;;;21.77;31.34;94618.53;4982135;28;20061;-71
2021/11/01 14:20:10;;;;;;;11.20;7.35;;;;;;;21.49;32.22;94613.44;5019658;28;20057;-72
2021/11/01 14:30:57;;;;;;;17.23;9.98;;;;;;;21.06;32.82;94613.94;5037527;28;20068;-71
2021/11/01 14:56:27;;;;;;;16.88;8.90;;;;;;;20.23;35.15;94611.56;5046335;28;20051;-73
2021/11/01 15:13:46;;;;;;;17.33;7.80;;;;;;;18.15;39.67;94595.28;5042074;28;20139;-71
2021/11/01 15:16:29;;;;;;;12.45;6.75;;;;;;;17.94;39.98;94600.00;5023395;28;20150;-71
2021/11/01 15:21:31;;;;;;;21.75;7.53;;;;;;;17.38;41.10;94604.81;5042041;28;20052;-71
2021/11/01 16:18:15;;;;;;;44.15;17.42;;;;;;;12.47;54.09;94616.97;5038904;28;20055;-69
2021/11/01 16:20:43;;;;;;;31.95;14.93;;;;;;;11.55;57.16;94622.72;5037028;28;20045;-69
2021/11/01 16:23:34;;;;;;;21.27;10.68;;;;;;;10.75;60.73;94616.91;5037015;28;20403;-71
2021/11/01 16:26:12;;;;;;;21.27;9.90;;;;;;;10.13;63.97;94631.44;5024482;28;20048;-71
2021/11/01 16:28:39;;;;;;;17.30;9.70;;;;;;;10.21;64.51;94629.50;5038009;28;20059;-72
2021/11/01 16:34:01;;;;;;;20.02;9.68;;;;;;;10.52;63.99;94629.03;5040215;28;20036;-71
2021/11/01 16:39:11;;;;;;;15.43;8.38;;;;;;;10.39;63.88;94631.13;5042579;28;20091;-72
2021/11/01 16:41:41;;;;;;;15.90;8.85;;;;;;;10.48;63.85;94624.56;5042073;28;20047;-73
2021/11/01 16:44:21;;;;;;;14.43;8.63;;;;;;;9.98;66.95;94646.78;5040608;28;20040;-71
2021/11/01 16:46:49;;;;;;;18.48;9.15;;;;;;;9.97;67.00;94641.81;5004846;28;20045;-71
2021/11/01 16:49:17;;;;;;;16.65;8.13;;;;;;;10.03;65.73;94644.28;5019547;28;20077;-70
2021/11/01 16:51:44;;;;;;;17.00;8.85;;;;;;;9.88;66.46;94630.97;5038584;28;20064;-70
2021/11/01 16:54:15;;;;;;;16.45;9.75;;;;;;;9.53;69.15;94644.84;5036160;28;20041;-71
2021/11/01 16:57:18;;;;;;;17.25;8.43;;;;;;;8.93;72.98;94641.47;5040168;28;20098;-71
2021/11/01 17:05:29;;;;;;;16.38;9.20;;;;;;;8.59;76.07;94640.41;5035010;28;20051;-71
2021/11/01 17:21:22;;;;;;;21.50;10.50;;;;;;;8.33;83.66;94651.94;5038226;28;20117;-71
2021/11/01 17:26:37;;;;;;;21.73;10.60;;;;;;;8.30;84.82;94662.75;5035793;28;20045;-71
2021/11/01 17:35:12;;;;;;;24.73;11.80;;;;;;;8.28;85.61;94659.56;5039542;28;20852;-72
2021/11/01 18:52:03;;;;;;;21.92;10.60;;;;;;;7.57;95.03;94687.75;5040920;28;20037;-70
2021/11/01 18:54:42;;;;;;;24.98;12.18;;;;;;;7.63;94.17;94682.50;5039576;28;20095;-70
2021/11/01 18:57:11;;;;;;;22.67;10.55;;;;;;;7.85;93.45;94688.03;5042091;28;20067;-70
2021/11/01 18:59:40;;;;;;;21.75;9.48;;;;;;;7.93;92.52;94699.13;5040529;28;20047;-70
2021/11/01 19:11:38;;;;;;;21.77;10.70;;;;;;;8.16;89.53;94709.63;4982723;28;20058;-70
2021/11/01 20:06:58;;;;;;;29.33;12.50;;;;;;;8.89;84.77;94713.06;5041251;28;20049;-68
2021/11/01 21:27:00;;;;;;;24.33;11.20;;;;;;;5.99;100.00;94671.38;5040560;28;20069;-67
2021/11/01 21:29:28;;;;;;;33.17;12.35;;;;;;;5.99;100.00;94666.19;5040771;28;20049;-67
2021/11/01 21:31:55;;;;;;;30.85;12.27;;;;;;;5.94;100.00;94662.41;5039701;28;20052;-67
2021/11/01 21:35:08;;;;;;;27.77;12.95;;;;;;;5.93;100.00;94660.03;5040470;28;20069;-67
2021/11/01 21:37:12;;;;;;;34.80;12.95;;;;;;;5.88;100.00;94663.22;5030756;28;20057;-67
2021/11/01 21:39:39;;;;;;;30.45;12.98;;;;;;;5.96;100.00;94658.84;5040150;28;20049;-67
2021/11/01 21:42:05;;;;;;;29.13;13.20;;;;;;;5.94;100.00;94657.25;5040607;28;20047;-67
2021/11/01 21:44:37;;;;;;;30.15;11.63;;;;;;;5.89;100.00;94657.06;5040960;28;20513;-66
2021/11/01 21:47:04;;;;;;;31.50;13.00;;;;;;;5.96;100.00;94654.50;5039964;28;20033;-67
2021/11/01 21:49:31;;;;;;;27.17;12.52;;;;;;;6.02;100.00;94634.75;5039429;28;20128;-67
2021/11/01 21:51:58;;;;;;;34.53;13.20;;;;;;;6.01;100.00;94630.59;5040404;28;20537;-67
2021/11/01 21:54:31;;;;;;;28.40;12.85;;;;;;;5.87;100.00;94615.13;5040245;28;20064;-67
2021/11/01 21:57:03;;;;;;;25.88;13.18;;;;;;;5.94;100.00;94633.16;5041172;28;20033;-66
2021/11/01 22:21:17;;;;;;;29.45;11.45;;;;;;;6.04;100.00;94599.16;5043859;28;20051;-66
2021/11/01 22:34:32;;;;;;;26.65;12.35;;;;;;;6.18;100.00;94603.25;5036721;28;20518;-66
2021/11/01 22:58:05;;;;;;;43.65;13.02;;;;;;;5.50;100.00;94563.19;5044260;28;20529;-66
2021/11/01 23:00:37;;;;;;;28.83;12.02;;;;;;;5.44;100.00;94558.88;5043062;28;20072;-67
2021/11/01 23:03:10;;;;;;;35.92;14.43;;;;;;;5.49;100.00;94582.28;5037988;28;20573;-66
2021/11/01 23:05:52;;;;;;;22.88;11.18;;;;;;;5.55;100.00;94571.13;5039759;28;20060;-66
2021/11/01 23:33:12;;;;;;;29.90;14.10;;;;;;;5.28;100.00;94549.00;5040032;28;20564;-67
2021/11/01 23:35:39;;;;;;;31.25;13.07;;;;;;;5.33;100.00;94533.66;5044232;28;20112;-67
2021/11/01 23:38:06;;;;;;;38.80;12.95;;;;;;;5.38;100.00;94531.25;5044100;28;20056;-67
2021/11/01 23:40:33;;;;;;;29.40;15.05;;;;;;;5.36;100.00;94528.09;5044281;28;20509;-67
2021/11/01 23:43:00;;;;;;;34.13;16.33;;;;;;;5.43;100.00;94526.28;5044102;28;20037;-67
2021/11/01 23:45:26;;;;;;;33.30;15.65;;;;;;;5.45;100.00;94529.44;5045377;28;20032;-67
2021/11/01 23:47:53;;;;;;;38.65;13.82;;;;;;;5.48;100.00;94530.84;5043941;28;20418;-67
2021/11/01 23:50:20;;;;;;;32.63;15.55;;;;;;;5.41;100.00;94512.78;5044856;28;20052;-67
2021/11/01 23:52:57;;;;;;;34.50;14.52;;;;;;;5.35;100.00;94518.78;5045262;28;20154;-67
2021/11/01 23:55:23;;;;;;;33.40;15.10;;;;;;;5.34;100.00;94507.63;5043936;28;20033;-67
2021/11/01 23:57:50;;;;;;;34.20;14.25;;;;;;;5.40;100.00;94511.19;5044213;28;20055;-67
